sensor_id;sensor_type;location;lat;lon;timestamp;temperature;humidity
53880;DHT22;39791;53.184;5.486;2023-08-12T00:00:16;20.50;99.90
53880;DHT22;39791;53.184;5.486;2023-08-12T00:02:43;20.70;99.90
53880;DHT22;39791;53.184;5.486;2023-08-12T00:05:08;20.50;99.90
53880;DHT22;39791;53.184;5.486;2023-08-12T00:07:36;20.10;99.90
53880;DHT22;39791;53.184;5.486;2023-08-12T00:10:03;20.40;99.90
53880;DHT22;39791;53.184;5.486;2023-08-12T00:12:33;21.00;99.90
53880;DHT22;39791;53.184;5.486;2023-08-12T00:14:59;20.00;99.90
53880;DHT22;39791;53.184;5.486;2023-08-12T00:17:24;20.70;99.90
53880;DHT22;39791;53.184;5.486;2023-08-12T00:19:50;20.90;99.90
53880;DHT22;39791;53.184;5.486;2023-08-12T00:22:16;20.90;99.90
53880;DHT22;39791;53.184;5.486;2023-08-12T00:24:41;20.00;99.90
53880;DHT22;39791;53.184;5.486;2023-08-12T00:27:07;20.60;99.90
53880;DHT22;39791;53.184;5.486;2023-08-12T00:29:39;20.10;99.90
53880;DHT22;39791;53.184;5.486;2023-08-12T00:32:05;21.00;99.90
53880;DHT22;39791;53.184;5.486;2023-08-12T00:34:30;19.90;99.90
53880;DHT22;39791;53.184;5.486;2023-08-12T00:36:56;19.80;99.90
53880;DHT22;39791;53.184;5.486;2023-08-12T00:39:21;20.70;99.90
53880;DHT22;39791;53.184;5.486;2023-08-12T00:41:48;19.90;99.90
53880;DHT22;39791;53.184;5.486;2023-08-12T00:44:13;20.00;99.90
53880;DHT22;39791;53.184;5.486;2023-08-12T00:46:41;19.90;99.90
53880;DHT22;39791;53.184;5.486;2023-08-12T00:49:07;19.60;99.90
53880;DHT22;39791;53.184;5.486;2023-08-12T00:51:34;19.60;99.90
53880;DHT22;39791;53.184;5.486;2023-08-12T00:54:02;19.70;99.90
53880;DHT22;39791;53.184;5.486;2023-08-12T00:56:30;19.60;99.90
53880;DHT22;39791;53.184;5.486;2023-08-12T00:58:57;20.50;99.90
53880;DHT22;39791;53.184;5.486;2023-08-12T01:01:23;19.60;99.90
53880;DHT22;39791;53.184;5.486;2023-08-12T01:03:49;20.20;99.90
53880;DHT22;39791;53.184;5.486;2023-08-12T01:06:15;20.70;99.90
53880;DHT22;39791;53.184;5.486;2023-08-12T01:08:41;20.60;99.90
53880;DHT22;39791;53.184;5.486;2023-08-12T01:11:14;20.60;99.90
53880;DHT22;39791;53.184;5.486;2023-08-12T01:13:52;19.60;99.90
53880;DHT22;39791;53.184;5.486;2023-08-12T01:16:22;19.90;99.90
53880;DHT22;39791;53.184;5.486;2023-08-12T01:18:49;19.80;99.90
53880;DHT22;39791;53.184;5.486;2023-08-12T01:21:16;20.60;99.90
53880;DHT22;39791;53.184;5.486;2023-08-12T01:23:43;19.60;99.90
53880;DHT22;39791;53.184;5.486;2023-08-12T01:26:09;20.30;99.90
53880;DHT22;39791;53.184;5.486;2023-08-12T01:28:35;20.60;99.90
53880;DHT22;39791;53.184;5.486;2023-08-12T01:31:20;20.20;99.90
53880;DHT22;39791;53.184;5.486;2023-08-12T01:33:56;19.70;99.90
53880;DHT22;39791;53.184;5.486;2023-08-12T01:36:24;20.60;99.90
53880;DHT22;39791;53.184;5.486;2023-08-12T01:38:51;20.80;99.90
53880;DHT22;39791;53.184;5.486;2023-08-12T01:41:20;20.80;99.90
53880;DHT22;39791;53.184;5.486;2023-08-12T01:43:47;20.90;99.90
53880;DHT22;39791;53.184;5.486;2023-08-12T01:46:13;20.60;99.90
53880;DHT22;39791;53.184;5.486;2023-08-12T01:48:39;19.80;99.90
53880;DHT22;39791;53.184;5.486;2023-08-12T01:51:05;20.60;99.90
53880;DHT22;39791;53.184;5.486;2023-08-12T01:53:31;21.40;99.90
53880;DHT22;39791;53.184;5.486;2023-08-12T01:55:56;20.90;99.90
53880;DHT22;39791;53.184;5.486;2023-08-12T01:58:22;20.00;99.90
53880;DHT22;39791;53.184;5.486;2023-08-12T02:00:47;21.40;99.90
53880;DHT22;39791;53.184;5.486;2023-08-12T02:03:13;20.30;99.90
53880;DHT22;39791;53.184;5.486;2023-08-12T02:05:39;20.80;99.90
53880;DHT22;39791;53.184;5.486;2023-08-12T02:08:06;20.90;99.90
53880;DHT22;39791;53.184;5.486;2023-08-12T02:10:31;20.10;99.90
53880;DHT22;39791;53.184;5.486;2023-08-12T02:12:57;21.10;99.90
53880;DHT22;39791;53.184;5.486;2023-08-12T02:15:23;21.10;99.90
53880;DHT22;39791;53.184;5.486;2023-08-12T02:17:48;21.10;99.90
53880;DHT22;39791;53.184;5.486;2023-08-12T02:20:14;20.70;99.90
53880;DHT22;39791;53.184;5.486;2023-08-12T02:22:39;21.20;99.90
53880;DHT22;39791;53.184;5.486;2023-08-12T02:25:05;20.90;99.90
53880;DHT22;39791;53.184;5.486;2023-08-12T02:27:31;21.00;99.90
53880;DHT22;39791;53.184;5.486;2023-08-12T02:29:56;20.40;99.90
53880;DHT22;39791;53.184;5.486;2023-08-12T02:32:22;20.80;99.90
53880;DHT22;39791;53.184;5.486;2023-08-12T02:34:47;21.30;99.90
53880;DHT22;39791;53.184;5.486;2023-08-12T02:37:13;20.80;99.90
53880;DHT22;39791;53.184;5.486;2023-08-12T02:39:38;20.60;99.90
53880;DHT22;39791;53.184;5.486;2023-08-12T02:42:04;21.60;99.90
53880;DHT22;39791;53.184;5.486;2023-08-12T02:44:30;21.60;99.90
53880;DHT22;39791;53.184;5.486;2023-08-12T02:46:56;20.30;99.90
53880;DHT22;39791;53.184;5.486;2023-08-12T02:49:21;21.60;99.90
53880;DHT22;39791;53.184;5.486;2023-08-12T02:51:47;21.10;99.90
53880;DHT22;39791;53.184;5.486;2023-08-12T02:54:12;20.50;99.90
53880;DHT22;39791;53.184;5.486;2023-08-12T02:56:38;20.40;99.90
53880;DHT22;39791;53.184;5.486;2023-08-12T02:59:03;20.30;99.90
53880;DHT22;39791;53.184;5.486;2023-08-12T03:01:29;20.70;99.90
53880;DHT22;39791;53.184;5.486;2023-08-12T03:03:55;21.30;99.90
53880;DHT22;39791;53.184;5.486;2023-08-12T03:06:21;21.60;99.90
53880;DHT22;39791;53.184;5.486;2023-08-12T03:08:46;20.50;99.90
53880;DHT22;39791;53.184;5.486;2023-08-12T03:11:12;21.10;99.90
53880;DHT22;39791;53.184;5.486;2023-08-12T03:13:38;21.00;99.90
53880;DHT22;39791;53.184;5.486;2023-08-12T03:16:03;21.70;99.90
53880;DHT22;39791;53.184;5.486;2023-08-12T03:18:29;21.70;99.90
53880;DHT22;39791;53.184;5.486;2023-08-12T03:20:54;20.70;99.90
53880;DHT22;39791;53.184;5.486;2023-08-12T03:23:20;20.90;99.90
53880;DHT22;39791;53.184;5.486;2023-08-12T03:25:49;21.60;99.90
53880;DHT22;39791;53.184;5.486;2023-08-12T03:28:15;21.70;99.90
53880;DHT22;39791;53.184;5.486;2023-08-12T03:30:41;21.70;99.90
53880;DHT22;39791;53.184;5.486;2023-08-12T03:33:06;20.70;99.90
53880;DHT22;39791;53.184;5.486;2023-08-12T03:35:32;22.00;99.90
53880;DHT22;39791;53.184;5.486;2023-08-12T03:37:58;21.80;99.90
53880;DHT22;39791;53.184;5.486;2023-08-12T03:40:23;21.80;99.90
53880;DHT22;39791;53.184;5.486;2023-08-12T03:42:49;20.70;99.90
53880;DHT22;39791;53.184;5.486;2023-08-12T03:45:14;21.20;99.90
53880;DHT22;39791;53.184;5.486;2023-08-12T03:47:40;20.60;99.90
53880;DHT22;39791;53.184;5.486;2023-08-12T03:50:06;21.50;99.90
53880;DHT22;39791;53.184;5.486;2023-08-12T03:52:31;21.50;99.90
53880;DHT22;39791;53.184;5.486;2023-08-12T03:54:57;22.10;99.90
53880;DHT22;39791;53.184;5.486;2023-08-12T03:57:23;21.00;99.90
53880;DHT22;39791;53.184;5.486;2023-08-12T03:59:48;21.20;99.90
53880;DHT22;39791;53.184;5.486;2023-08-12T04:02:14;20.70;99.90
53880;DHT22;39791;53.184;5.486;2023-08-12T04:04:39;21.90;99.90
53880;DHT22;39791;53.184;5.486;2023-08-12T04:07:05;21.90;99.90
53880;DHT22;39791;53.184;5.486;2023-08-12T04:09:31;22.00;99.90
53880;DHT22;39791;53.184;5.486;2023-08-12T04:11:56;21.80;99.90
53880;DHT22;39791;53.184;5.486;2023-08-12T04:14:22;20.80;99.90
53880;DHT22;39791;53.184;5.486;2023-08-12T04:16:47;22.00;99.90
53880;DHT22;39791;53.184;5.486;2023-08-12T04:19:13;21.70;99.90
53880;DHT22;39791;53.184;5.486;2023-08-12T04:21:38;22.00;99.90
53880;DHT22;39791;53.184;5.486;2023-08-12T04:24:04;20.60;99.90
53880;DHT22;39791;53.184;5.486;2023-08-12T04:26:30;21.60;99.90
53880;DHT22;39791;53.184;5.486;2023-08-12T04:28:56;21.40;99.90
53880;DHT22;39791;53.184;5.486;2023-08-12T04:31:21;21.70;99.90
53880;DHT22;39791;53.184;5.486;2023-08-12T04:33:47;22.10;99.90
53880;DHT22;39791;53.184;5.486;2023-08-12T04:36:12;21.00;99.90
53880;DHT22;39791;53.184;5.486;2023-08-12T04:38:38;20.60;99.90
53880;DHT22;39791;53.184;5.486;2023-08-12T04:41:04;20.50;99.90
53880;DHT22;39791;53.184;5.486;2023-08-12T04:43:30;21.20;99.90
53880;DHT22;39791;53.184;5.486;2023-08-12T04:45:55;22.10;99.90
53880;DHT22;39791;53.184;5.486;2023-08-12T04:48:21;20.70;99.90
53880;DHT22;39791;53.184;5.486;2023-08-12T04:50:46;21.10;99.90
53880;DHT22;39791;53.184;5.486;2023-08-12T04:53:12;21.10;99.90
53880;DHT22;39791;53.184;5.486;2023-08-12T04:55:38;20.80;99.90
53880;DHT22;39791;53.184;5.486;2023-08-12T04:58:04;20.70;99.90
53880;DHT22;39791;53.184;5.486;2023-08-12T05:00:30;20.70;99.90
53880;DHT22;39791;53.184;5.486;2023-08-12T05:02:55;21.90;99.90
53880;DHT22;39791;53.184;5.486;2023-08-12T05:05:21;20.80;99.90
53880;DHT22;39791;53.184;5.486;2023-08-12T05:07:46;20.90;99.90
53880;DHT22;39791;53.184;5.486;2023-08-12T05:10:15;22.00;99.90
53880;DHT22;39791;53.184;5.486;2023-08-12T05:12:42;21.20;99.90
53880;DHT22;39791;53.184;5.486;2023-08-12T05:15:08;21.80;99.90
53880;DHT22;39791;53.184;5.486;2023-08-12T05:17:34;20.80;99.90
53880;DHT22;39791;53.184;5.486;2023-08-12T05:19:59;21.20;99.90
53880;DHT22;39791;53.184;5.486;2023-08-12T05:22:25;21.50;99.90
53880;DHT22;39791;53.184;5.486;2023-08-12T05:24:51;21.00;99.90
53880;DHT22;39791;53.184;5.486;2023-08-12T05:27:16;22.30;99.90
53880;DHT22;39791;53.184;5.486;2023-08-12T05:29:42;21.50;99.90
53880;DHT22;39791;53.184;5.486;2023-08-12T05:32:07;21.90;99.90
53880;DHT22;39791;53.184;5.486;2023-08-12T05:34:33;21.00;99.90
53880;DHT22;39791;53.184;5.486;2023-08-12T05:36:58;22.40;99.90
53880;DHT22;39791;53.184;5.486;2023-08-12T05:39:24;22.50;99.90
53880;DHT22;39791;53.184;5.486;2023-08-12T05:41:49;21.00;99.90
53880;DHT22;39791;53.184;5.486;2023-08-12T05:44:17;21.00;99.90
53880;DHT22;39791;53.184;5.486;2023-08-12T05:46:43;22.10;99.90
53880;DHT22;39791;53.184;5.486;2023-08-12T05:49:08;21.60;99.90
53880;DHT22;39791;53.184;5.486;2023-08-12T05:51:34;22.50;99.90
53880;DHT22;39791;53.184;5.486;2023-08-12T05:53:59;22.50;99.90
53880;DHT22;39791;53.184;5.486;2023-08-12T05:56:25;21.60;99.90
53880;DHT22;39791;53.184;5.486;2023-08-12T05:58:50;21.40;99.90
53880;DHT22;39791;53.184;5.486;2023-08-12T06:01:16;21.20;99.90
53880;DHT22;39791;53.184;5.486;2023-08-12T06:03:42;21.20;99.90
53880;DHT22;39791;53.184;5.486;2023-08-12T06:06:08;21.50;99.90
53880;DHT22;39791;53.184;5.486;2023-08-12T06:08:33;22.60;99.90
53880;DHT22;39791;53.184;5.486;2023-08-12T06:10:59;22.70;99.90
53880;DHT22;39791;53.184;5.486;2023-08-12T06:13:25;22.20;99.90
53880;DHT22;39791;53.184;5.486;2023-08-12T06:15:50;21.20;99.90
53880;DHT22;39791;53.184;5.486;2023-08-12T06:18:16;21.80;99.90
53880;DHT22;39791;53.184;5.486;2023-08-12T06:20:42;21.50;99.90
53880;DHT22;39791;53.184;5.486;2023-08-12T06:23:07;22.80;99.90
53880;DHT22;39791;53.184;5.486;2023-08-12T06:25:33;21.20;99.90
53880;DHT22;39791;53.184;5.486;2023-08-12T06:27:58;21.30;99.90
53880;DHT22;39791;53.184;5.486;2023-08-12T06:30:24;22.00;99.90
53880;DHT22;39791;53.184;5.486;2023-08-12T06:32:50;22.30;99.90
53880;DHT22;39791;53.184;5.486;2023-08-12T06:35:15;22.80;99.90
53880;DHT22;39791;53.184;5.486;2023-08-12T06:37:41;22.80;99.90
53880;DHT22;39791;53.184;5.486;2023-08-12T06:40:07;22.80;99.90
53880;DHT22;39791;53.184;5.486;2023-08-12T06:42:33;21.50;99.90
53880;DHT22;39791;53.184;5.486;2023-08-12T06:44:59;22.40;99.90
53880;DHT22;39791;53.184;5.486;2023-08-12T06:47:25;22.20;99.90
53880;DHT22;39791;53.184;5.486;2023-08-12T06:49:52;21.50;99.90
53880;DHT22;39791;53.184;5.486;2023-08-12T06:52:18;23.10;99.90
53880;DHT22;39791;53.184;5.486;2023-08-12T06:54:44;21.70;99.90
53880;DHT22;39791;53.184;5.486;2023-08-12T06:57:09;22.60;99.90
53880;DHT22;39791;53.184;5.486;2023-08-12T06:59:37;21.90;99.90
53880;DHT22;39791;53.184;5.486;2023-08-12T07:02:03;22.80;99.90
53880;DHT22;39791;53.184;5.486;2023-08-12T07:04:28;23.20;99.90
53880;DHT22;39791;53.184;5.486;2023-08-12T07:06:55;23.00;99.90
53880;DHT22;39791;53.184;5.486;2023-08-12T07:09:20;22.80;99.90
53880;DHT22;39791;53.184;5.486;2023-08-12T07:11:46;21.70;99.90
53880;DHT22;39791;53.184;5.486;2023-08-12T07:14:11;22.60;99.90
53880;DHT22;39791;53.184;5.486;2023-08-12T07:16:37;21.60;99.90
53880;DHT22;39791;53.184;5.486;2023-08-12T07:19:02;21.90;99.90
53880;DHT22;39791;53.184;5.486;2023-08-12T07:21:28;22.60;99.90
53880;DHT22;39791;53.184;5.486;2023-08-12T07:23:53;21.70;99.90
53880;DHT22;39791;53.184;5.486;2023-08-12T07:26:19;21.90;99.90
53880;DHT22;39791;53.184;5.486;2023-08-12T07:28:44;22.00;99.90
53880;DHT22;39791;53.184;5.486;2023-08-12T07:31:10;23.00;99.90
53880;DHT22;39791;53.184;5.486;2023-08-12T07:33:36;22.70;99.90
53880;DHT22;39791;53.184;5.486;2023-08-12T07:36:02;22.80;99.90
53880;DHT22;39791;53.184;5.486;2023-08-12T07:38:28;23.10;99.90
53880;DHT22;39791;53.184;5.486;2023-08-12T07:40:54;23.10;99.90
53880;DHT22;39791;53.184;5.486;2023-08-12T07:43:19;21.80;99.90
53880;DHT22;39791;53.184;5.486;2023-08-12T07:45:45;23.10;99.90
53880;DHT22;39791;53.184;5.486;2023-08-12T07:48:10;23.10;99.90
53880;DHT22;39791;53.184;5.486;2023-08-12T07:50:36;23.20;99.90
53880;DHT22;39791;53.184;5.486;2023-08-12T07:53:01;21.60;99.90
53880;DHT22;39791;53.184;5.486;2023-08-12T07:55:27;22.80;99.90
53880;DHT22;39791;53.184;5.486;2023-08-12T07:57:53;21.70;99.90
53880;DHT22;39791;53.184;5.486;2023-08-12T08:00:19;23.10;99.90
53880;DHT22;39791;53.184;5.486;2023-08-12T08:02:44;22.20;99.90
53880;DHT22;39791;53.184;5.486;2023-08-12T08:05:10;21.80;99.90
53880;DHT22;39791;53.184;5.486;2023-08-12T08:07:36;22.20;99.90
53880;DHT22;39791;53.184;5.486;2023-08-12T08:10:01;21.90;99.90
53880;DHT22;39791;53.184;5.486;2023-08-12T08:12:27;23.00;99.90
53880;DHT22;39791;53.184;5.486;2023-08-12T08:14:53;23.00;99.90
53880;DHT22;39791;53.184;5.486;2023-08-12T08:17:18;22.60;99.90
53880;DHT22;39791;53.184;5.486;2023-08-12T08:19:44;21.80;99.90
53880;DHT22;39791;53.184;5.486;2023-08-12T08:22:09;21.80;99.90
53880;DHT22;39791;53.184;5.486;2023-08-12T08:24:35;23.30;99.90
53880;DHT22;39791;53.184;5.486;2023-08-12T08:27:00;23.20;99.90
53880;DHT22;39791;53.184;5.486;2023-08-12T08:29:26;23.30;99.90
53880;DHT22;39791;53.184;5.486;2023-08-12T08:31:51;21.70;99.90
53880;DHT22;39791;53.184;5.486;2023-08-12T08:34:17;22.60;99.90
53880;DHT22;39791;53.184;5.486;2023-08-12T08:36:42;22.70;99.90
53880;DHT22;39791;53.184;5.486;2023-08-12T08:39:08;23.10;99.90
53880;DHT22;39791;53.184;5.486;2023-08-12T08:41:39;21.70;99.90
53880;DHT22;39791;53.184;5.486;2023-08-12T08:44:07;23.20;99.90
53880;DHT22;39791;53.184;5.486;2023-08-12T08:46:34;22.70;99.90
53880;DHT22;39791;53.184;5.486;2023-08-12T08:49:00;22.40;99.90
53880;DHT22;39791;53.184;5.486;2023-08-12T08:51:32;22.30;99.90
53880;DHT22;39791;53.184;5.486;2023-08-12T08:53:58;23.00;99.90
53880;DHT22;39791;53.184;5.486;2023-08-12T08:56:24;22.30;99.90
53880;DHT22;39791;53.184;5.486;2023-08-12T08:58:51;21.40;99.90
53880;DHT22;39791;53.184;5.486;2023-08-12T09:01:20;21.20;99.90
53880;DHT22;39791;53.184;5.486;2023-08-12T09:03:47;21.10;99.90
53880;DHT22;39791;53.184;5.486;2023-08-12T09:06:18;22.40;99.90
53880;DHT22;39791;53.184;5.486;2023-08-12T09:08:45;22.20;99.90
53880;DHT22;39791;53.184;5.486;2023-08-12T09:11:13;22.20;99.90
53880;DHT22;39791;53.184;5.486;2023-08-12T09:13:39;21.70;99.90
53880;DHT22;39791;53.184;5.486;2023-08-12T09:16:05;22.30;99.90
53880;DHT22;39791;53.184;5.486;2023-08-12T09:18:31;21.80;99.90
53880;DHT22;39791;53.184;5.486;2023-08-12T09:20:57;22.10;99.90
53880;DHT22;39791;53.184;5.486;2023-08-12T09:23:22;22.00;99.90
53880;DHT22;39791;53.184;5.486;2023-08-12T09:25:48;22.00;99.90
53880;DHT22;39791;53.184;5.486;2023-08-12T09:28:14;22.20;99.90
53880;DHT22;39791;53.184;5.486;2023-08-12T09:30:40;21.30;99.90
53880;DHT22;39791;53.184;5.486;2023-08-12T09:33:08;22.10;99.90
53880;DHT22;39791;53.184;5.486;2023-08-12T09:35:38;21.90;99.90
53880;DHT22;39791;53.184;5.486;2023-08-12T09:38:14;20.90;99.90
53880;DHT22;39791;53.184;5.486;2023-08-12T09:40:40;21.40;99.90
53880;DHT22;39791;53.184;5.486;2023-08-12T09:43:06;21.50;99.90
53880;DHT22;39791;53.184;5.486;2023-08-12T09:45:33;20.80;99.90
53880;DHT22;39791;53.184;5.486;2023-08-12T09:47:59;21.60;99.90
53880;DHT22;39791;53.184;5.486;2023-08-12T09:50:25;20.70;99.90
53880;DHT22;39791;53.184;5.486;2023-08-12T09:52:52;20.70;99.90
53880;DHT22;39791;53.184;5.486;2023-08-12T09:55:20;21.10;99.90
53880;DHT22;39791;53.184;5.486;2023-08-12T09:57:51;20.70;99.90
53880;DHT22;39791;53.184;5.486;2023-08-12T10:00:19;21.70;99.90
53880;DHT22;39791;53.184;5.486;2023-08-12T10:02:47;20.60;99.90
53880;DHT22;39791;53.184;5.486;2023-08-12T10:05:18;20.90;99.90
53880;DHT22;39791;53.184;5.486;2023-08-12T10:07:45;21.40;99.90
53880;DHT22;39791;53.184;5.486;2023-08-12T10:10:12;20.90;99.90
53880;DHT22;39791;53.184;5.486;2023-08-12T10:12:39;21.90;99.90
53880;DHT22;39791;53.184;5.486;2023-08-12T10:15:05;21.70;99.90
53880;DHT22;39791;53.184;5.486;2023-08-12T10:17:33;21.80;99.90
53880;DHT22;39791;53.184;5.486;2023-08-12T10:20:01;22.00;99.90
53880;DHT22;39791;53.184;5.486;2023-08-12T10:22:30;21.90;99.90
53880;DHT22;39791;53.184;5.486;2023-08-12T10:24:58;21.30;99.90
53880;DHT22;39791;53.184;5.486;2023-08-12T10:27:25;21.70;99.90
53880;DHT22;39791;53.184;5.486;2023-08-12T10:29:51;22.20;99.90
53880;DHT22;39791;53.184;5.486;2023-08-12T10:32:16;22.00;99.90
53880;DHT22;39791;53.184;5.486;2023-08-12T10:34:42;21.80;99.90
53880;DHT22;39791;53.184;5.486;2023-08-12T10:37:09;21.40;99.90
53880;DHT22;39791;53.184;5.486;2023-08-12T10:39:36;21.50;99.90
53880;DHT22;39791;53.184;5.486;2023-08-12T10:42:02;21.20;99.90
53880;DHT22;39791;53.184;5.486;2023-08-12T10:44:49;21.50;99.90
53880;DHT22;39791;53.184;5.486;2023-08-12T10:47:19;21.10;99.90
53880;DHT22;39791;53.184;5.486;2023-08-12T10:49:49;21.30;99.90
53880;DHT22;39791;53.184;5.486;2023-08-12T10:55:16;21.30;99.90
53880;DHT22;39791;53.184;5.486;2023-08-12T10:57:43;21.30;99.90
53880;DHT22;39791;53.184;5.486;2023-08-12T11:00:19;21.50;99.90
53880;DHT22;39791;53.184;5.486;2023-08-12T11:02:55;21.50;99.90
53880;DHT22;39791;53.184;5.486;2023-08-12T11:05:22;21.70;99.90
53880;DHT22;39791;53.184;5.486;2023-08-12T11:07:48;22.20;99.90
53880;DHT22;39791;53.184;5.486;2023-08-12T11:10:20;21.30;99.90
53880;DHT22;39791;53.184;5.486;2023-08-12T11:13:04;21.70;99.90
53880;DHT22;39791;53.184;5.486;2023-08-12T11:15:34;21.80;99.90
53880;DHT22;39791;53.184;5.486;2023-08-12T11:18:07;21.40;99.90
53880;DHT22;39791;53.184;5.486;2023-08-12T11:20:33;21.40;99.90
53880;DHT22;39791;53.184;5.486;2023-08-12T11:23:00;22.20;99.90
53880;DHT22;39791;53.184;5.486;2023-08-12T11:25:27;21.60;99.90
53880;DHT22;39791;53.184;5.486;2023-08-12T11:27:53;21.80;99.90
53880;DHT22;39791;53.184;5.486;2023-08-12T11:30:20;22.10;99.90
53880;DHT22;39791;53.184;5.486;2023-08-12T11:32:51;22.60;99.90
53880;DHT22;39791;53.184;5.486;2023-08-12T11:35:17;22.90;99.90
53880;DHT22;39791;53.184;5.486;2023-08-12T11:37:48;23.10;99.90
53880;DHT22;39791;53.184;5.486;2023-08-12T11:40:15;23.10;99.90
53880;DHT22;39791;53.184;5.486;2023-08-12T11:42:43;23.20;99.90
53880;DHT22;39791;53.184;5.486;2023-08-12T11:45:11;23.40;99.90
53880;DHT22;39791;53.184;5.486;2023-08-12T11:47:40;23.80;99.90
53880;DHT22;39791;53.184;5.486;2023-08-12T11:50:11;24.00;99.90
53880;DHT22;39791;53.184;5.486;2023-08-12T11:52:37;23.60;99.90
53880;DHT22;39791;53.184;5.486;2023-08-12T11:55:04;23.40;99.90
53880;DHT22;39791;53.184;5.486;2023-08-12T11:57:31;23.90;99.90
53880;DHT22;39791;53.184;5.486;2023-08-12T12:00:00;23.80;99.90
53880;DHT22;39791;53.184;5.486;2023-08-12T12:02:26;24.10;99.90
53880;DHT22;39791;53.184;5.486;2023-08-12T12:04:52;23.80;99.90
53880;DHT22;39791;53.184;5.486;2023-08-12T12:07:23;23.90;99.90
53880;DHT22;39791;53.184;5.486;2023-08-12T12:09:53;24.20;99.90
53880;DHT22;39791;53.184;5.486;2023-08-12T12:12:25;24.30;99.90
53880;DHT22;39791;53.184;5.486;2023-08-12T12:14:55;23.90;99.90
53880;DHT22;39791;53.184;5.486;2023-08-12T12:17:24;24.00;99.90
53880;DHT22;39791;53.184;5.486;2023-08-12T12:19:55;24.20;99.90
53880;DHT22;39791;53.184;5.486;2023-08-12T12:22:31;24.30;99.90
53880;DHT22;39791;53.184;5.486;2023-08-12T12:24:59;24.40;99.90
53880;DHT22;39791;53.184;5.486;2023-08-12T12:27:25;24.40;99.90
53880;DHT22;39791;53.184;5.486;2023-08-12T12:29:51;24.20;99.90
53880;DHT22;39791;53.184;5.486;2023-08-12T12:32:20;24.60;99.90
53880;DHT22;39791;53.184;5.486;2023-08-12T12:34:47;24.10;99.90
53880;DHT22;39791;53.184;5.486;2023-08-12T12:37:15;24.30;99.90
53880;DHT22;39791;53.184;5.486;2023-08-12T12:39:41;24.50;99.90
53880;DHT22;39791;53.184;5.486;2023-08-12T12:42:08;24.40;99.90
53880;DHT22;39791;53.184;5.486;2023-08-12T12:44:34;24.30;1.00
53880;DHT22;39791;53.184;5.486;2023-08-12T12:46:59;24.50;99.90
53880;DHT22;39791;53.184;5.486;2023-08-12T12:49:25;24.40;99.90
53880;DHT22;39791;53.184;5.486;2023-08-12T12:51:50;24.30;99.90
53880;DHT22;39791;53.184;5.486;2023-08-12T12:54:17;24.30;99.90
53880;DHT22;39791;53.184;5.486;2023-08-12T12:56:42;24.30;99.90
53880;DHT22;39791;53.184;5.486;2023-08-12T12:59:08;24.50;1.00
53880;DHT22;39791;53.184;5.486;2023-08-12T13:01:33;24.50;99.90
53880;DHT22;39791;53.184;5.486;2023-08-12T13:03:59;24.60;1.00
53880;DHT22;39791;53.184;5.486;2023-08-12T13:06:24;24.80;99.90
53880;DHT22;39791;53.184;5.486;2023-08-12T13:08:50;24.60;1.00
53880;DHT22;39791;53.184;5.486;2023-08-12T13:11:16;24.60;72.40
53880;DHT22;39791;53.184;5.486;2023-08-12T13:13:42;24.60;1.00
53880;DHT22;39791;53.184;5.486;2023-08-12T13:16:07;24.40;99.90
53880;DHT22;39791;53.184;5.486;2023-08-12T13:18:35;24.50;99.90
53880;DHT22;39791;53.184;5.486;2023-08-12T13:21:01;24.40;99.90
53880;DHT22;39791;53.184;5.486;2023-08-12T13:23:26;24.50;99.90
53880;DHT22;39791;53.184;5.486;2023-08-12T13:25:52;24.50;66.80
53880;DHT22;39791;53.184;5.486;2023-08-12T13:28:19;24.50;1.00
53880;DHT22;39791;53.184;5.486;2023-08-12T13:30:47;24.40;1.00
53880;DHT22;39791;53.184;5.486;2023-08-12T13:33:13;24.40;1.00
53880;DHT22;39791;53.184;5.486;2023-08-12T13:35:38;24.40;1.00
53880;DHT22;39791;53.184;5.486;2023-08-12T13:38:04;24.40;1.00
53880;DHT22;39791;53.184;5.486;2023-08-12T13:40:30;24.40;1.00
53880;DHT22;39791;53.184;5.486;2023-08-12T13:42:56;24.50;99.90
53880;DHT22;39791;53.184;5.486;2023-08-12T13:45:22;24.40;99.90
53880;DHT22;39791;53.184;5.486;2023-08-12T13:47:47;24.50;99.90
53880;DHT22;39791;53.184;5.486;2023-08-12T13:50:13;24.40;99.90
53880;DHT22;39791;53.184;5.486;2023-08-12T13:52:39;24.50;99.90
53880;DHT22;39791;53.184;5.486;2023-08-12T13:55:05;24.40;99.90
53880;DHT22;39791;53.184;5.486;2023-08-12T13:57:31;24.40;99.90
53880;DHT22;39791;53.184;5.486;2023-08-12T13:59:57;24.50;29.40
53880;DHT22;39791;53.184;5.486;2023-08-12T14:02:22;24.50;1.00
53880;DHT22;39791;53.184;5.486;2023-08-12T14:04:48;24.30;1.00
53880;DHT22;39791;53.184;5.486;2023-08-12T14:07:14;24.30;99.90
53880;DHT22;39791;53.184;5.486;2023-08-12T14:09:40;24.30;1.00
53880;DHT22;39791;53.184;5.486;2023-08-12T14:12:06;24.30;1.00
53880;DHT22;39791;53.184;5.486;2023-08-12T14:14:32;24.30;1.00
53880;DHT22;39791;53.184;5.486;2023-08-12T14:16:57;24.20;1.00
53880;DHT22;39791;53.184;5.486;2023-08-12T14:19:23;24.30;1.00
53880;DHT22;39791;53.184;5.486;2023-08-12T14:21:48;24.30;1.00
53880;DHT22;39791;53.184;5.486;2023-08-12T14:24:14;24.30;33.20
53880;DHT22;39791;53.184;5.486;2023-08-12T14:26:40;24.30;91.70
53880;DHT22;39791;53.184;5.486;2023-08-12T14:29:06;24.20;99.90
53880;DHT22;39791;53.184;5.486;2023-08-12T14:31:31;24.10;99.90
53880;DHT22;39791;53.184;5.486;2023-08-12T14:33:57;24.20;99.90
53880;DHT22;39791;53.184;5.486;2023-08-12T14:36:23;24.10;99.90
53880;DHT22;39791;53.184;5.486;2023-08-12T14:38:50;24.00;99.90
53880;DHT22;39791;53.184;5.486;2023-08-12T14:41:15;24.10;99.90
53880;DHT22;39791;53.184;5.486;2023-08-12T14:43:41;24.10;99.90
53880;DHT22;39791;53.184;5.486;2023-08-12T14:46:07;24.00;99.90
53880;DHT22;39791;53.184;5.486;2023-08-12T14:48:32;23.90;99.90
53880;DHT22;39791;53.184;5.486;2023-08-12T14:50:58;23.90;99.90
53880;DHT22;39791;53.184;5.486;2023-08-12T14:53:25;23.80;99.90
53880;DHT22;39791;53.184;5.486;2023-08-12T14:55:51;23.80;99.90
53880;DHT22;39791;53.184;5.486;2023-08-12T14:58:16;23.70;99.90
53880;DHT22;39791;53.184;5.486;2023-08-12T15:00:42;23.90;99.90
53880;DHT22;39791;53.184;5.486;2023-08-12T15:03:08;23.90;99.90
53880;DHT22;39791;53.184;5.486;2023-08-12T15:05:33;23.90;1.00
53880;DHT22;39791;53.184;5.486;2023-08-12T15:07:59;23.80;99.90
53880;DHT22;39791;53.184;5.486;2023-08-12T15:10:24;23.70;99.90
53880;DHT22;39791;53.184;5.486;2023-08-12T15:12:50;23.50;99.90
53880;DHT22;39791;53.184;5.486;2023-08-12T15:15:16;23.50;99.90
53880;DHT22;39791;53.184;5.486;2023-08-12T15:17:41;23.60;99.90
53880;DHT22;39791;53.184;5.486;2023-08-12T15:20:07;23.50;99.90
53880;DHT22;39791;53.184;5.486;2023-08-12T15:22:35;23.30;99.90
53880;DHT22;39791;53.184;5.486;2023-08-12T15:25:01;23.30;99.90
53880;DHT22;39791;53.184;5.486;2023-08-12T15:27:27;23.40;99.90
53880;DHT22;39791;53.184;5.486;2023-08-12T15:29:52;23.30;99.90